Time;durP1;ratioP1;P1;durP2;ratioP2;P2;SDS_P1;SDS_P2;PMS_P1;PMS_P2;Temp;Humidity;BMP_temperature;BMP_pressure;BME280_temperature;BME280_humidity;BME280_pressure;Samples;Min_cycle;Max_cycle;Signal;HPM_P1;HPM_P2
2023/10/10 00:01:27;;;;;;;7.50;5.32;;;;;;;21.65;58.05;102178.44;5011596;28;20139;-38
2023/10/10 00:03:54;;;;;;;7.28;4.88;;;;;;;21.65;57.98;102182.00;5005044;28;20113;-38
2023/10/10 00:06:22;;;;;;;6.85;5.00;;;;;;;21.64;58.15;102182.16;5006228;28;20056;-38
2023/10/10 00:08:50;;;;;;;9.20;5.43;;;;;;;21.63;58.00;102184.00;5008605;28;20054;-38
2023/10/10 00:11:18;;;;;;;7.18;5.18;;;;;;;21.63;58.41;102183.16;5003403;28;20421;-38
2023/10/10 00:13:52;;;;;;;9.20;5.68;;;;;;;21.62;58.27;102182.28;5007228;28;20038;-38
2023/10/10 00:16:26;;;;;;;8.55;5.80;;;;;;;21.60;58.04;102181.56;5003257;28;20050;-38
2023/10/10 00:18:56;;;;;;;6.90;5.00;;;;;;;21.60;58.34;102173.47;5004471;28;20058;-38
2023/10/10 00:21:23;;;;;;;7.25;4.93;;;;;;;21.61;58.58;102179.72;5004093;28;20125;-38
2023/10/10 00:23:51;;;;;;;6.68;4.70;;;;;;;21.60;58.34;102175.34;5003900;28;20112;-38
2023/10/10 00:26:20;;;;;;;7.22;4.78;;;;;;;21.59;58.20;102177.19;5005491;28;20093;-38
2023/10/10 00:28:58;;;;;;;7.40;5.10;;;;;;;21.58;58.35;102172.75;5006172;28;20064;-38
2023/10/10 00:31:28;;;;;;;6.90;4.82;;;;;;;21.57;58.50;102167.53;5004172;28;20500;-38
2023/10/10 00:33:55;;;;;;;7.28;5.20;;;;;;;21.57;58.18;102164.81;5005605;28;20062;-38
2023/10/10 00:36:30;;;;;;;9.38;5.88;;;;;;;21.57;57.95;102167.53;5010219;28;20053;-38
2023/10/10 00:41:53;;;;;;;7.72;5.05;;;;;;;21.55;58.25;102154.19;4998598;28;20168;-37
2023/10/10 00:44:21;;;;;;;7.05;4.97;;;;;;;;;;5008140;28;20389;-37
2023/10/10 00:46:53;;;;;;;7.88;4.70;;;;;;;21.54;58.16;102157.88;5009882;28;20057;-37
2023/10/10 00:49:25;;;;;;;6.72;4.57;;;;;;;21.53;58.10;102156.16;5006203;28;20046;-38
2023/10/10 00:51:54;;;;;;;7.97;5.00;;;;;;;21.52;58.35;102145.53;5004887;28;20089;-38
2023/10/10 00:56:56;;;;;;;6.57;4.35;;;;;;;21.50;58.36;102140.25;5000338;28;20046;-38
2023/10/10 00:59:43;;;;;;;8.27;5.05;;;;;;;21.51;58.30;102135.72;5002187;28;20053;-37
2023/10/10 01:02:14;;;;;;;7.07;4.80;;;;;;;21.50;58.29;102140.25;5001650;28;20057;-37
2023/10/10 01:07:21;;;;;;;6.05;4.68;;;;;;;21.48;58.25;102144.97;5010889;28;20112;-38
2023/10/10 01:12:28;;;;;;;6.90;4.65;;;;;;;21.47;58.24;102147.78;5005093;28;20046;-38
2023/10/10 01:14:57;;;;;;;7.10;4.50;;;;;;;21.47;58.43;102142.41;5003971;28;20118;-37
2023/10/10 01:17:30;;;;;;;6.95;4.57;;;;;;;21.45;58.42;102134.47;5005285;28;20453;-37
2023/10/10 01:22:58;;;;;;;6.25;4.28;;;;;;;21.44;58.27;102138.16;4990646;28;20050;-38
2023/10/10 01:33:36;;;;;;;6.35;4.32;;;;;;;21.41;58.71;102131.19;5001502;28;20046;-37
2023/10/10 01:36:11;;;;;;;7.82;5.03;;;;;;;21.41;58.34;102128.50;5002554;28;20046;-38
2023/10/10 01:38:56;;;;;;;6.03;4.15;;;;;;;21.42;58.47;102118.56;5005574;28;20470;-38
2023/10/10 01:41:38;;;;;;;6.80;4.43;;;;;;;21.40;58.57;102109.78;5004359;28;20461;-38
2023/10/10 01:44:12;;;;;;;5.32;4.20;;;;;;;21.39;58.49;102113.47;5005952;28;20340;-38
2023/10/10 01:46:40;;;;;;;6.35;4.32;;;;;;;21.39;58.30;102114.31;4996279;28;20058;-37
2023/10/10 01:49:14;;;;;;;5.78;4.30;;;;;;;21.39;58.59;102108.94;4997806;28;20402;-37
2023/10/10 01:51:43;;;;;;;6.45;4.30;;;;;;;21.38;58.54;102103.66;5002446;28;20050;-37
2023/10/10 01:54:20;;;;;;;6.82;4.38;;;;;;;21.37;58.49;102110.91;5006331;28;20092;-37
2023/10/10 01:56:48;;;;;;;6.55;4.60;;;;;;;21.37;58.72;102104.66;5004947;28;20085;-38
2023/10/10 01:59:25;;;;;;;7.55;4.53;;;;;;;21.36;58.80;102111.91;5002240;28;20085;-38
2023/10/10 02:01:57;;;;;;;5.80;4.30;;;;;;;21.36;58.43;102116.47;5001006;28;20050;-38
2023/10/10 02:04:34;;;;;;;5.95;4.47;;;;;;;21.35;58.37;102107.53;4998461;28;20046;-38
2023/10/10 02:07:14;;;;;;;6.28;4.68;;;;;;;21.34;58.52;102113.03;5002304;28;20132;-38
2023/10/10 02:09:43;;;;;;;7.07;4.47;;;;;;;21.33;58.53;102101.41;5003909;28;20519;-38
2023/10/10 02:12:16;;;;;;;4.97;4.05;;;;;;;21.33;58.87;102100.56;5006268;28;20108;-37
2023/10/10 02:14:43;;;;;;;5.05;3.75;;;;;;;21.33;58.45;102100.56;5008812;28;20592;-37
2023/10/10 02:17:22;;;;;;;7.70;4.30;;;;;;;21.33;58.24;102100.56;5005706;28;20082;-38
2023/10/10 02:20:18;;;;;;;6.60;4.55;;;;;;;21.32;58.38;102104.22;5000539;28;20050;-38
2023/10/10 02:22:53;;;;;;;5.35;4.20;;;;;;;21.32;58.55;102106.91;5008803;28;20333;-38
2023/10/10 02:28:02;;;;;;;6.53;4.20;;;;;;;21.30;58.46;102098.09;5003472;28;20053;-37
2023/10/10 02:30:36;;;;;;;6.10;4.50;;;;;;;21.31;58.64;102099.84;5006254;28;20688;-38
2023/10/10 02:35:55;;;;;;;9.00;4.40;;;;;;;21.30;58.58;102090.03;5005360;28;20072;-38
2023/10/10 02:38:31;;;;;;;6.45;4.68;;;;;;;21.29;58.65;102085.63;5000107;28;20046;-38
2023/10/10 02:41:13;;;;;;;8.50;5.20;;;;;;;21.29;58.69;102073.00;5000943;28;20073;-37
2023/10/10 02:43:46;;;;;;;6.10;4.53;;;;;;;21.28;58.71;102076.69;5003905;28;20078;-38
2023/10/10 02:46:18;;;;;;;7.32;4.78;;;;;;;21.27;58.37;102066.91;5007417;28;20053;-37
2023/10/10 02:48:45;;;;;;;6.47;4.80;;;;;;;21.27;58.52;102076.84;5006092;28;20050;-37
2023/10/10 02:51:15;;;;;;;7.75;5.32;;;;;;;21.26;58.69;102075.97;5003508;28;20054;-38
2023/10/10 02:53:46;;;;;;;7.60;5.15;;;;;;;21.25;58.87;102070.72;5000314;28;20057;-37
2023/10/10 02:56:18;;;;;;;7.43;4.70;;;;;;;21.25;58.83;102070.72;5002981;28;20050;-38
2023/10/10 02:58:48;;;;;;;6.47;4.55;;;;;;;21.25;58.38;102059.94;5001280;28;20058;-38
2023/10/10 03:04:03;;;;;;;8.13;4.70;;;;;;;21.23;58.48;102059.22;5001893;28;20049;-37
2023/10/10 03:06:29;;;;;;;6.70;4.70;;;;;;;21.21;59.03;102064.78;4997001;28;20058;-38
2023/10/10 03:09:14;;;;;;;7.03;5.10;;;;;;;21.21;58.70;102062.09;4998373;28;20054;-37
2023/10/10 03:11:53;;;;;;;6.20;4.53;;;;;;;21.20;59.03;102063.09;5002445;28;20402;-38
2023/10/10 03:14:28;;;;;;;6.88;4.65;;;;;;;21.19;58.77;102051.44;5002423;28;20421;-37
2023/10/10 03:16:59;;;;;;;7.40;5.32;;;;;;;21.20;58.63;102055.00;5005805;28;20049;-36
2023/10/10 03:19:27;;;;;;;7.25;5.32;;;;;;;21.18;58.86;102055.13;5004324;28;20553;-37
2023/10/10 03:22:19;;;;;;;6.03;4.75;;;;;;;21.17;58.77;102056.13;5007911;28;20324;-37
2023/10/10 03:30:22;;;;;;;7.90;5.15;;;;;;;21.16;58.78;102040.09;5001804;28;20443;-38
2023/10/10 03:33:29;;;;;;;5.90;4.75;;;;;;;21.15;58.67;102043.81;5005588;28;20061;-37
2023/10/10 03:35:59;;;;;;;6.40;5.20;;;;;;;21.14;58.90;102045.63;5003225;28;20058;-38
2023/10/10 05:23:34;;;;;;;9.77;5.32;;;;;;;20.93;58.79;101951.47;5003291;28;20049;-37
2023/10/10 05:26:05;;;;;;;9.23;4.78;;;;;;;20.92;59.27;101952.47;5000833;28;20145;-38
2023/10/10 05:28:32;;;;;;;6.47;4.32;;;;;;;20.92;59.13;101948.94;5008938;28;20045;-37
2023/10/10 05:31:02;;;;;;;6.20;4.30;;;;;;;20.91;58.95;101948.09;5009194;28;20049;-37
2023/10/10 05:33:30;;;;;;;9.95;5.28;;;;;;;20.91;59.49;101949.94;5008128;28;20445;-38
2023/10/10 05:35:59;;;;;;;5.75;4.05;;;;;;;20.90;58.91;101942.81;5003673;28;20060;-38
2023/10/10 05:38:26;;;;;;;8.05;5.00;;;;;;;20.90;59.23;101942.81;5000925;28;20513;-38
2023/10/10 05:40:53;;;;;;;8.73;5.65;;;;;;;20.88;58.79;101934.06;5001719;28;20050;-38
2023/10/10 05:43:26;;;;;;;8.50;4.63;;;;;;;20.90;59.15;101942.81;5004111;28;20057;-37
2023/10/10 05:45:56;;;;;;;6.47;4.80;;;;;;;20.90;59.18;101945.53;5001719;28;20497;-38
2023/10/10 05:48:23;;;;;;;8.52;5.95;;;;;;;20.88;58.82;101947.53;5001206;28;20349;-38
2023/10/10 05:50:50;;;;;;;8.63;5.78;;;;;;;20.88;58.94;101944.81;5004460;28;20338;-38
2023/10/10 05:53:18;;;;;;;8.35;5.68;;;;;;;20.88;58.92;101942.13;5003535;28;20045;-37
2023/10/10 05:55:50;;;;;;;7.85;4.78;;;;;;;20.87;58.91;101943.13;5001612;28;20501;-38
2023/10/10 05:58:18;;;;;;;8.23;5.50;;;;;;;20.86;58.93;101939.56;5004999;28;20054;-38
2023/10/10 06:00:48;;;;;;;6.53;4.57;;;;;;;20.85;58.94;101928.94;5003252;28;20375;-38
2023/10/10 06:03:17;;;;;;;9.38;5.88;;;;;;;20.85;59.26;101926.25;5002861;28;20058;-37
2023/10/10 06:05:44;;;;;;;7.97;5.10;;;;;;;20.84;59.10;101919.16;4998434;28;20339;-37
2023/10/10 06:08:12;;;;;;;7.55;5.40;;;;;;;20.83;58.94;101917.47;5001762;28;20368;-38
2023/10/10 06:10:40;;;;;;;6.55;5.05;;;;;;;20.83;59.04;101914.78;5001259;28;20061;-38
2023/10/10 06:13:07;;;;;;;7.90;5.40;;;;;;;20.83;59.09;101920.16;5003083;28;20049;-38
2023/10/10 06:15:34;;;;;;;9.07;6.30;;;;;;;20.82;59.26;101918.44;5000865;28;20050;-38
2023/10/10 06:18:11;;;;;;;8.70;4.90;;;;;;;20.82;58.88;101929.22;5003020;28;20050;-38
2023/10/10 06:20:41;;;;;;;7.57;5.18;;;;;;;20.82;58.74;101921.16;5004364;28;20477;-38
2023/10/10 06:23:28;;;;;;;8.25;5.65;;;;;;;20.82;58.95;101923.84;5001123;28;20054;-38
2023/10/10 06:25:58;;;;;;;8.63;5.68;;;;;;;20.82;59.26;101927.38;5005389;28;20081;-38
2023/10/10 06:28:29;;;;;;;8.65;4.88;;;;;;;20.82;58.98;101932.78;5007026;28;20046;-38
2023/10/10 06:30:59;;;;;;;9.90;5.63;;;;;;;20.83;59.17;101936.34;5001267;28;20179;-38
2023/10/10 06:33:30;;;;;;;8.75;5.53;;;;;;;20.83;58.79;101930.94;4999706;28;20073;-38
2023/10/10 06:41:38;;;;;;;6.63;4.32;;;;;;;20.83;59.17;101929.09;5003225;28;20057;-39
2023/10/10 06:46:55;;;;;;;9.18;6.07;;;;;;;20.84;58.88;101932.66;4998821;28;20053;-38
2023/10/10 06:49:22;;;;;;;10.40;7.15;;;;;;;20.83;58.72;101936.34;5000135;28;20121;-38
2023/10/10 06:51:50;;;;;;;8.20;5.78;;;;;;;20.84;58.85;101928.09;4998746;28;20062;-38
2023/10/10 06:54:28;;;;;;;9.02;5.28;;;;;;;20.83;59.09;101931.81;4997889;28;20049;-37
2023/10/10 06:59:28;;;;;;;9.98;5.75;;;;;;;20.85;58.84;101934.34;5003563;28;20278;-37
2023/10/10 07:02:00;;;;;;;9.32;5.65;;;;;;;20.85;58.97;101939.72;5003715;28;20050;-37
2023/10/10 07:04:27;;;;;;;10.13;6.00;;;;;;;20.86;58.79;101931.47;4995775;28;20418;-38
2023/10/10 07:07:00;;;;;;;8.70;5.82;;;;;;;20.86;58.66;101936.88;4998148;28;20053;-38
2023/10/10 07:09:28;;;;;;;11.47;5.53;;;;;;;20.86;58.98;101928.78;5003231;28;20094;-38
2023/10/10 07:12:21;;;;;;;10.40;6.43;;;;;;;20.87;58.51;101932.34;4998987;28;20112;-38
2023/10/10 07:14:53;;;;;;;9.38;5.90;;;;;;;20.88;58.85;101931.34;5002285;28;20362;-38
2023/10/10 07:17:27;;;;;;;8.57;5.22;;;;;;;20.90;58.72;101921.25;5001439;28;20042;-38
2023/10/10 07:22:34;;;;;;;8.35;5.22;;;;;;;20.90;58.60;101916.75;4999043;28;20069;-38
2023/10/10 07:25:07;;;;;;;7.93;5.10;;;;;;;20.91;58.63;101918.44;5002540;28;20393;-38
2023/10/10 07:27:39;;;;;;;9.55;5.72;;;;;;;20.92;58.67;101919.28;4998428;28;20057;-38
2023/10/10 07:30:17;;;;;;;10.97;5.27;;;;;;;20.93;58.54;101910.19;5002119;28;20129;-38
2023/10/10 07:32:48;;;;;;;7.65;4.80;;;;;;;20.94;58.69;101910.06;4997906;28;20081;-38
2023/10/10 07:35:16;;;;;;;8.98;5.63;;;;;;;20.94;58.22;101912.75;4999665;28;20042;-38
2023/10/10 07:37:44;;;;;;;8.98;5.53;;;;;;;20.94;58.45;101915.47;5001075;28;20056;-38
2023/10/10 07:40:22;;;;;;;9.30;5.35;;;;;;;20.94;58.50;101918.16;4997641;28;20273;-38
2023/10/10 07:43:03;;;;;;;7.65;5.35;;;;;;;20.98;58.23;101928.63;4999535;28;20485;-38
2023/10/10 07:45:33;;;;;;;7.43;4.97;;;;;;;20.98;58.45;101924.06;5003498;28;20128;-38
2023/10/10 07:50:35;;;;;;;10.18;5.50;;;;;;;20.99;58.59;101933.03;4999799;28;20050;-38
2023/10/10 07:53:04;;;;;;;10.25;5.72;;;;;;;21.00;58.19;101926.66;4998525;28;20054;-38
2023/10/10 07:55:53;;;;;;;9.15;5.82;;;;;;;21.01;58.35;101928.34;4998025;28;20040;-38
2023/10/10 07:58:23;;;;;;;10.52;5.93;;;;;;;21.01;58.48;101929.19;5001613;28;20422;-38
2023/10/10 08:01:09;;;;;;;10.25;6.43;;;;;;;21.02;58.22;101917.38;5003010;28;20053;-38
2023/10/10 08:03:38;;;;;;;9.88;5.68;;;;;;;21.04;58.18;101925.34;5006078;28;20111;-41
2023/10/10 08:06:08;;;;;;;8.80;5.70;;;;;;;21.05;58.43;101921.66;5004426;28;20088;-38
2023/10/10 08:08:40;;;;;;;10.45;6.38;;;;;;;21.06;58.29;101909.88;5001693;28;20124;-38
2023/10/10 08:11:12;;;;;;;9.35;6.20;;;;;;;21.07;58.62;101925.06;5003584;28;20327;-38
2023/10/10 08:13:42;;;;;;;10.65;5.88;;;;;;;21.09;58.49;101933.84;5002977;28;20065;-38
2023/10/10 08:16:09;;;;;;;8.05;5.60;;;;;;;21.09;58.28;101920.34;5002507;28;20495;-38
2023/10/10 08:21:11;;;;;;;10.15;6.47;;;;;;;21.10;58.24;101932.84;5008666;28;20054;-38
2023/10/10 08:23:49;;;;;;;11.18;6.75;;;;;;;21.10;57.89;101933.69;5007947;28;20050;-38
2023/10/10 08:26:38;;;;;;;10.38;6.20;;;;;;;21.10;58.24;101922.91;5007799;28;20080;-38
2023/10/10 08:29:09;;;;;;;9.82;6.70;;;;;;;21.12;58.16;101922.78;5007164;28;20492;-38
2023/10/10 08:31:38;;;;;;;9.23;6.18;;;;;;;21.12;58.05;101922.78;5001827;28;20058;-38
2023/10/10 08:34:08;;;;;;;13.18;6.47;;;;;;;21.12;58.08;101920.91;5004347;28;20511;-38
2023/10/10 08:36:37;;;;;;;9.60;6.57;;;;;;;21.14;58.02;101916.22;5006206;28;20057;-38
2023/10/10 08:41:44;;;;;;;13.52;6.72;;;;;;;21.17;57.95;101920.47;5004278;28;20396;-38
2023/10/10 08:44:14;;;;;;;10.77;7.10;;;;;;;21.17;57.72;101920.47;5005725;28;20045;-38
2023/10/10 08:46:46;;;;;;;15.43;7.38;;;;;;;21.18;58.24;101916.75;5003833;28;20064;-38
2023/10/10 08:49:14;;;;;;;12.45;6.90;;;;;;;21.19;57.95;101924.72;5002889;28;20137;-38
2023/10/10 08:51:45;;;;;;;10.85;6.57;;;;;;;21.20;57.86;101921.03;5002972;28;20062;-38
2023/10/10 08:54:15;;;;;;;12.10;6.88;;;;;;;21.24;57.93;101931.53;5002758;28;20141;-38
2023/10/10 08:56:59;;;;;;;11.60;6.43;;;;;;;21.26;57.94;101924.13;5008401;28;20081;-38
2023/10/10 08:59:31;;;;;;;9.27;6.20;;;;;;;21.28;58.13;101916.75;5004783;28;20046;-38
2023/10/10 09:02:07;;;;;;;12.40;7.05;;;;;;;21.29;57.69;101918.44;5004609;28;20079;-38
2023/10/10 09:04:34;;;;;;;11.52;6.78;;;;;;;21.32;57.79;101920.84;4999809;28;20064;-38
2023/10/10 09:07:08;;;;;;;10.25;6.60;;;;;;;21.33;57.67;101917.16;5008059;28;20449;-38
2023/10/10 09:09:40;;;;;;;11.48;7.05;;;;;;;21.35;57.94;101917.88;5005129;28;20046;-38
2023/10/10 09:12:14;;;;;;;11.25;7.03;;;;;;;21.37;57.89;101914.03;5005911;28;20409;-38
2023/10/10 09:14:52;;;;;;;13.00;7.50;;;;;;;21.40;57.86;101912.88;4999602;28;20132;-38
2023/10/10 09:17:28;;;;;;;11.70;6.13;;;;;;;21.41;57.85;101918.13;5002336;28;20046;-38
2023/10/10 09:20:00;;;;;;;10.10;6.20;;;;;;;21.44;57.63;101916.97;5004379;28;20053;-38
2023/10/10 09:22:43;;;;;;;10.02;6.20;;;;;;;21.47;57.43;101916.69;5003738;28;20053;-38
2023/10/10 09:25:21;;;;;;;8.88;5.60;;;;;;;21.49;57.55;101911.97;5001913;28;20316;-38
2023/10/10 09:28:08;;;;;;;9.60;5.38;;;;;;;21.54;57.17;101909.66;5017301;28;20144;-38
2023/10/10 09:30:40;;;;;;;7.90;4.75;;;;;;;21.58;57.22;101907.50;5008347;28;20052;-38
2023/10/10 09:33:21;;;;;;;7.85;4.70;;;;;;;21.60;57.28;101903.69;5007754;28;20054;-38
2023/10/10 09:35:53;;;;;;;9.43;5.30;;;;;;;21.62;57.37;101896.25;5004525;28;20791;-38
2023/10/10 09:38:33;;;;;;;9.57;4.88;;;;;;;21.67;57.20;101901.22;5005625;28;20456;-38
2023/10/10 09:41:14;;;;;;;7.53;5.25;;;;;;;21.72;57.40;101900.78;5006587;28;20046;-38
2023/10/10 09:49:52;;;;;;;11.07;6.15;;;;;;;21.85;57.51;101903.94;5001708;28;20057;-38
2023/10/10 09:57:44;;;;;;;12.95;6.75;;;;;;;21.95;57.77;101904.72;5004328;28;20081;-38
2023/10/10 10:00:13;;;;;;;11.68;7.10;;;;;;;21.98;57.57;101907.09;5019257;28;20052;-38
2023/10/10 10:02:57;;;;;;;13.48;8.52;;;;;;;22.03;57.60;101917.44;4996889;28;20054;-38
2023/10/10 10:05:28;;;;;;;13.40;7.85;;;;;;;22.05;57.34;101908.19;5003885;28;20049;-38
2023/10/10 10:08:21;;;;;;;12.50;8.85;;;;;;;22.09;57.52;101909.56;5002846;28;20105;-38
2023/10/10 10:11:11;;;;;;;12.75;8.27;;;;;;;22.11;57.57;101912.97;5002102;28;20080;-38
2023/10/10 10:13:38;;;;;;;13.00;8.30;;;;;;;22.15;57.73;101917.09;5003961;28;20057;-39
2023/10/10 10:16:32;;;;;;;13.57;8.18;;;;;;;22.17;57.66;101914.22;5003649;28;20070;-38
2023/10/10 10:19:14;;;;;;;17.10;8.63;;;;;;;22.22;57.48;101924.56;5003537;28;20148;-38
2023/10/10 10:21:56;;;;;;;16.13;8.52;;;;;;;22.25;57.56;101908.91;5004361;28;20536;-38
2023/10/10 10:24:31;;;;;;;14.25;8.20;;;;;;;22.28;57.23;101919.41;4998070;28;20493;-38
2023/10/10 10:29:54;;;;;;;14.77;9.32;;;;;;;22.32;57.32;101911.84;5001326;28;20132;-39
2023/10/10 10:32:24;;;;;;;15.00;9.00;;;;;;;22.34;57.73;101915.22;5006229;28;20092;-38
2023/10/10 10:34:57;;;;;;;15.43;8.43;;;;;;;22.35;57.60;101914.22;5005194;28;20050;-39
2023/10/10 10:37:28;;;;;;;18.00;9.75;;;;;;;22.37;57.46;101913.06;5008161;28;20046;-39
2023/10/10 10:40:22;;;;;;;20.38;10.43;;;;;;;22.39;57.26;101911.06;5005618;28;20105;-39
2023/10/10 10:42:53;;;;;;;16.85;9.82;;;;;;;22.41;57.39;101906.34;4998571;28;20053;-39
2023/10/10 10:45:35;;;;;;;17.20;9.35;;;;;;;22.41;57.56;101902.78;5006593;28;20058;-38
2023/10/10 10:48:20;;;;;;;16.23;9.93;;;;;;;22.42;57.40;101901.78;5004242;28;20045;-39
2023/10/10 10:50:57;;;;;;;15.70;9.68;;;;;;;22.44;57.51;101907.03;5007736;28;20276;-39
2023/10/10 10:53:37;;;;;;;17.05;8.30;;;;;;;22.42;57.20;101902.63;5002843;28;20101;-39
2023/10/10 11:01:21;;;;;;;16.42;9.38;;;;;;;22.45;56.92;101898.78;5002739;28;20537;-39
2023/10/10 11:03:51;;;;;;;13.88;8.65;;;;;;;22.45;57.42;101898.78;4997897;28;20078;-39
2023/10/10 11:06:20;;;;;;;17.05;9.02;;;;;;;22.46;57.12;101900.47;5002747;28;20078;-39
2023/10/10 11:11:28;;;;;;;15.23;8.50;;;;;;;22.47;57.49;101880.53;5004419;28;20049;-39
2023/10/10 11:16:46;;;;;;;14.57;9.45;;;;;;;22.49;57.40;101878.53;4999059;28;20058;-39
2023/10/10 11:21:54;;;;;;;13.98;8.48;;;;;;;22.50;57.54;101885.63;5002115;28;20054;-39
2023/10/10 11:24:24;;;;;;;13.23;8.63;;;;;;;22.51;57.23;101875.66;5003427;28;20050;-39
2023/10/10 11:29:32;;;;;;;18.08;8.88;;;;;;;22.52;57.27;101866.56;5001418;28;20389;-39
2023/10/10 11:32:11;;;;;;;15.88;8.73;;;;;;;22.53;57.14;101866.41;5001136;28;20065;-38
2023/10/10 11:34:44;;;;;;;15.40;8.80;;;;;;;22.54;57.01;101867.25;4999752;28;20112;-38
2023/10/10 11:37:23;;;;;;;13.10;8.63;;;;;;;22.55;57.37;101866.22;4998829;28;20086;-38
2023/10/10 11:39:57;;;;;;;15.25;9.52;;;;;;;22.55;57.33;101856.31;5002694;28;20052;-39
2023/10/10 11:42:29;;;;;;;13.27;9.40;;;;;;;22.56;57.04;101857.16;5008944;28;20046;-38
2023/10/10 11:45:07;;;;;;;13.50;9.27;;;;;;;22.55;57.23;101848.19;5005156;28;20389;-38
2023/10/10 11:47:42;;;;;;;15.20;9.32;;;;;;;22.57;57.11;101859.69;5002962;28;20048;-38
2023/10/10 11:50:15;;;;;;;15.75;9.38;;;;;;;22.59;57.37;101851.41;5000800;28;20054;-39
2023/10/10 11:52:58;;;;;;;14.70;9.50;;;;;;;22.60;56.98;101845.00;5004043;28;20065;-38
2023/10/10 11:55:26;;;;;;;13.18;9.05;;;;;;;22.62;57.04;101845.69;5007680;28;20049;-38
2023/10/10 11:57:58;;;;;;;15.27;9.02;;;;;;;22.63;57.27;101842.84;5005750;28;20570;-38
2023/10/10 12:00:43;;;;;;;15.63;9.80;;;;;;;22.65;57.48;101840.81;5004580;28;20093;-38
2023/10/10 12:03:32;;;;;;;16.08;8.93;;;;;;;22.69;56.84;101826.97;5004576;28;20132;-38
2023/10/10 12:06:00;;;;;;;16.30;10.43;;;;;;;22.71;57.16;101827.66;5005790;28;20046;-38
2023/10/10 12:08:27;;;;;;;17.42;9.82;;;;;;;22.73;57.32;101821.09;5005002;28;20405;-38
2023/10/10 12:11:06;;;;;;;15.98;9.50;;;;;;;22.74;56.96;101825.47;5004397;28;20442;-38
2023/10/10 12:13:33;;;;;;;14.85;9.20;;;;;;;22.75;56.90;101824.47;5003988;28;20525;-38
2023/10/10 12:16:10;;;;;;;14.18;8.35;;;;;;;22.77;57.08;101816.22;5007591;28;20052;-38
2023/10/10 12:18:45;;;;;;;14.50;9.15;;;;;;;22.79;56.94;101819.59;5008405;28;20136;-38
2023/10/10 12:21:20;;;;;;;14.55;8.90;;;;;;;22.80;57.36;101815.91;5005080;28;20050;-39
2023/10/10 12:23:52;;;;;;;15.75;9.18;;;;;;;22.82;57.11;101814.72;5001514;28;20366;-39
2023/10/10 12:26:24;;;;;;;13.48;8.93;;;;;;;22.84;57.06;101825.38;5004071;28;20069;-39
2023/10/10 12:28:53;;;;;;;16.60;8.52;;;;;;;22.86;57.12;101809.84;5016257;28;20136;-39
2023/10/10 12:31:21;;;;;;;11.88;7.97;;;;;;;22.87;56.75;101825.03;5006257;28;20064;-39
2023/10/10 12:33:49;;;;;;;15.02;8.60;;;;;;;22.88;56.48;101807.81;5001940;28;20081;-39
2023/10/10 12:36:16;;;;;;;13.85;8.95;;;;;;;22.90;56.96;101808.50;5003643;28;20065;-38
2023/10/10 12:38:43;;;;;;;13.50;8.43;;;;;;;22.91;56.70;101804.81;5007559;28;20085;-38
2023/10/10 12:41:13;;;;;;;14.88;8.27;;;;;;;22.91;56.77;101796.69;5002744;28;20120;-38
2023/10/10 12:43:40;;;;;;;15.63;8.88;;;;;;;22.92;56.83;101800.28;5002286;28;20045;-38
2023/10/10 12:46:07;;;;;;;14.43;8.20;;;;;;;22.93;56.76;101800.09;5004670;28;20043;-38
2023/10/10 12:48:40;;;;;;;15.85;9.38;;;;;;;22.95;56.83;101799.94;5010593;28;20336;-38
2023/10/10 12:51:10;;;;;;;20.27;8.05;;;;;;;22.94;56.88;101793.69;5001860;28;20410;-38
2023/10/10 12:53:42;;;;;;;13.13;7.93;;;;;;;22.97;56.70;101804.16;5004442;28;20060;-38
2023/10/10 12:56:20;;;;;;;12.27;8.27;;;;;;;22.98;56.45;101796.91;5000586;28;20342;-38
2023/10/10 12:58:57;;;;;;;12.68;7.82;;;;;;;23.00;56.87;101803.84;5003185;28;20096;-38
2023/10/10 13:01:35;;;;;;;16.30;8.60;;;;;;;23.01;56.26;101797.44;5003957;28;20078;-39
2023/10/10 13:04:07;;;;;;;12.77;6.90;;;;;;;23.02;56.49;101793.72;4997976;28;20065;-39
2023/10/10 13:06:39;;;;;;;18.02;7.35;;;;;;;23.04;56.40;101797.09;5008197;28;20437;-39
2023/10/10 13:09:08;;;;;;;13.07;7.78;;;;;;;23.07;56.64;101799.47;5003827;28;20045;-39
2023/10/10 13:11:44;;;;;;;14.65;8.23;;;;;;;23.07;56.64;101802.16;5005219;28;20129;-39
2023/10/10 13:14:19;;;;;;;14.30;7.78;;;;;;;23.09;56.20;101797.44;5004927;28;20050;-39
2023/10/10 13:19:13;;;;;;;18.00;8.88;;;;;;;23.09;55.90;101789.34;5005497;28;20053;-39
2023/10/10 13:21:47;;;;;;;15.23;9.07;;;;;;;23.10;56.50;101790.19;5008319;28;20050;-39
2023/10/10 13:24:15;;;;;;;17.88;10.07;;;;;;;23.10;56.01;101796.44;5005059;28;20054;-39
2023/10/10 13:26:49;;;;;;;14.30;8.65;;;;;;;23.11;56.44;101794.56;5006449;28;20525;-39
2023/10/10 13:29:16;;;;;;;13.95;7.75;;;;;;;23.11;55.68;101794.56;5001614;28;20046;-39
2023/10/10 13:31:47;;;;;;;13.35;8.18;;;;;;;23.11;56.30;101797.28;5003902;28;20131;-39
2023/10/10 13:34:16;;;;;;;14.55;8.85;;;;;;;23.11;55.85;101799.97;4998916;28;20054;-39
2023/10/10 13:36:43;;;;;;;17.23;10.05;;;;;;;23.10;56.16;101799.13;5005238;28;20442;-39
2023/10/10 13:39:15;;;;;;;16.60;9.40;;;;;;;23.10;55.91;101799.13;5003338;28;20563;-39
2023/10/10 13:41:42;;;;;;;17.38;9.13;;;;;;;23.10;55.74;101804.56;5002923;28;20046;-39
2023/10/10 13:44:10;;;;;;;15.48;8.63;;;;;;;23.11;56.35;101799.97;5007258;28;20046;-39
2023/10/10 13:46:37;;;;;;;15.57;9.80;;;;;;;23.10;55.68;101799.13;5002035;28;20347;-39
2023/10/10 13:49:08;;;;;;;14.43;8.00;;;;;;;23.11;56.16;101798.13;5002190;28;20088;-39
2023/10/10 13:51:41;;;;;;;14.98;8.93;;;;;;;23.11;56.43;101798.13;5006193;28;20405;-39
2023/10/10 13:54:08;;;;;;;14.13;7.60;;;;;;;23.11;56.11;101790.00;5005869;28;20094;-39
2023/10/10 13:56:35;;;;;;;19.40;9.77;;;;;;;23.12;56.28;101778.19;5003654;28;20485;-39
2023/10/10 13:59:02;;;;;;;13.88;7.45;;;;;;;23.13;56.14;101779.03;5001825;28;20050;-39
2023/10/10 14:04:23;;;;;;;14.75;8.52;;;;;;;23.15;56.00;101782.41;5003452;28;20069;-39
2023/10/10 14:06:53;;;;;;;14.48;7.43;;;;;;;23.15;55.69;101780.56;5004026;28;20098;-39
2023/10/10 14:09:24;;;;;;;13.50;8.38;;;;;;;23.17;55.66;101779.56;5000174;28;20054;-39
2023/10/10 14:12:02;;;;;;;13.73;8.20;;;;;;;23.17;56.05;101769.59;5002939;28;20121;-39
2023/10/10 14:14:30;;;;;;;13.25;8.20;;;;;;;23.16;55.77;101767.91;5003079;28;20362;-39
2023/10/10 14:16:57;;;;;;;11.10;6.85;;;;;;;23.17;55.31;101769.59;5020233;28;20099;-38
2023/10/10 14:19:24;;;;;;;14.18;8.40;;;;;;;23.19;55.91;101766.72;4999510;28;20054;-38
2023/10/10 14:21:54;;;;;;;14.27;8.27;;;;;;;23.19;55.50;101758.59;4999337;28;20053;-38
2023/10/10 14:24:21;;;;;;;20.83;9.10;;;;;;;23.19;55.46;101764.00;4999683;28;20054;-38
2023/10/10 14:26:48;;;;;;;16.20;8.10;;;;;;;23.17;55.69;101753.38;5000767;28;20053;-39
2023/10/10 14:29:16;;;;;;;17.48;9.25;;;;;;;23.17;54.91;101747.97;5003712;28;20049;-39
2023/10/10 14:31:45;;;;;;;17.80;8.00;;;;;;;23.18;55.12;101749.63;5003067;28;20054;-39
2023/10/10 14:34:19;;;;;;;13.23;7.57;;;;;;;23.19;55.48;101755.88;5001614;28;20139;-39
2023/10/10 14:36:51;;;;;;;14.00;6.82;;;;;;;23.19;55.12;101740.50;4997937;28;20137;-39
2023/10/10 14:39:31;;;;;;;16.48;7.70;;;;;;;23.20;54.86;101744.94;5001650;28;20128;-39
2023/10/10 14:41:59;;;;;;;15.48;8.45;;;;;;;23.20;54.31;101738.69;4998880;28;20058;-38
2023/10/10 14:44:28;;;;;;;13.23;7.55;;;;;;;23.19;54.91;101735.09;5002660;28;20054;-38
2023/10/10 14:46:57;;;;;;;13.43;7.38;;;;;;;23.19;54.73;101732.38;4998399;28;20041;-38
2023/10/10 14:49:30;;;;;;;12.95;7.15;;;;;;;23.19;54.31;101728.84;5000155;28;20046;-38
2023/10/10 14:52:06;;;;;;;13.38;7.68;;;;;;;23.19;54.62;101728.84;5000042;28;20084;-39
2023/10/10 14:54:37;;;;;;;18.45;7.95;;;;;;;23.19;54.52;101734.25;5001303;28;20057;-38
2023/10/10 14:57:05;;;;;;;12.52;7.07;;;;;;;23.17;54.15;101720.91;5002506;28;20042;-38
2023/10/10 14:59:33;;;;;;;14.68;8.45;;;;;;;23.19;54.25;101720.72;5003605;28;20052;-38
2023/10/10 15:02:01;;;;;;;15.98;7.90;;;;;;;23.17;54.04;101717.34;5004739;28;20060;-38
2023/10/10 15:04:31;;;;;;;11.10;6.80;;;;;;;23.18;54.02;101717.19;4998398;28;20441;-38